PGUM/GUM METAR and TAF weather

Enter ICAO airport designator
Station Type Date Time Source
PGUM METAR 2018/12/11 17:54 UTC NOAA

PGUM 111754Z 10007KT 10SM FEW021 27/27 A2988 RMK AO2 SLP109 60001 T02720267 10278 20272 56012


Station Type Date Time Source
PGUM Decoded METAR 2018/12/11 17:54 UTC NOAA

Agana, Guam International Airport, GU, United States (PGUM) 13-29N 144-48E
Dec 11, 2018 - 12:54 PM EST / 2018.12.11 1754 UTC
Wind: from the E (100 degrees) at 8 MPH (7 KT):0
Visibility: 10 mile(s):0
Sky conditions: mostly clear
Temperature: 81.0 F (27.2 C)
Dew Point: 80.1 F (26.7 C)
Relative Humidity: 97%
Pressure (altimeter): 29.88 in. Hg (1011 hPa)
Pressure tendency: 0.04 inches (1.2 hPa) lower than three hours ago
ob: PGUM 111754Z 10007KT 10SM FEW021 27/27 A2988 RMK AO2 SLP109 60001 T02720267 10278 20272 56012
cycle: 18

Station Type Date Time Source
PGUM TAF 2018/12/11 18:24 UTC NOAA

TAF PGUM 111720Z 1118/1224 08009KT P6SM VCSH FEW020 SCT040
FM112300 09015KT P6SM VCSH SCT020 SCT040
FM120800 08008KT P6SM VCSH FEW020 SCT040


Example: see airport list